Time;durP1;ratioP1;P1;durP2;ratioP2;P2;SDS_P1;SDS_P2;PMS_P1;PMS_P2;Temp;Humidity;BMP_temperature;BMP_pressure;BME280_temperature;BME280_humidity;BME280_pressure;Samples;Min_cycle;Max_cycle;Signal;HPM_P1;HPM_P2
2023/02/17 00:02:10;;;;;;;;;;;;;;;;;;5095802;28;20429;-85
2023/02/17 00:04:36;;;;;;;;;;;;;;;;;;5094513;28;20296;-85
2023/02/17 00:07:01;;;;;;;;;;;;;;;;;;5095629;28;20014;-86
2023/02/17 00:09:27;;;;;;;;;;;;;;;;;;5095709;28;19916;-85
2023/02/17 00:11:52;;;;;;;;;;;;;;;;;;5094333;28;19920;-85
2023/02/17 00:14:17;;;;;;;;;;;;;;;;;;5095797;28;20283;-84
2023/02/17 00:16:43;;;;;;;;;;;;;;;;;;5095610;28;19920;-84
2023/02/17 00:19:24;;;;;;;;;;;;;;;;;;5094130;28;19957;-84
2023/02/17 00:21:50;;;;;;;;;;;;;;;;;;5095458;28;19923;-83
2023/02/17 00:24:15;;;;;;;;;;;;;;;;;;5095285;28;20291;-84
2023/02/17 00:26:41;;;;;;;;;;;;;;;;;;5095202;28;20332;-84
2023/02/17 00:29:06;;;;;;;;;;;;;;;;;;5095461;28;20733;-85
2023/02/17 00:31:32;;;;;;;;;;;;;;;;;;5095267;28;19927;-85
2023/02/17 00:33:57;;;;;;;;;;;;;;;;;;5093890;28;20379;-84
2023/02/17 00:36:23;;;;;;;;;;;;;;;;;;5093834;28;20390;-84
2023/02/17 00:38:49;;;;;;;;;;;;;;;;;;5093861;28;19920;-85
2023/02/17 00:41:15;;;;;;;;;;;;;;;;;;5095094;28;19923;-86
2023/02/17 00:43:40;;;;;;;;;;;;;;;;;;5093613;28;19917;-84
2023/02/17 00:46:06;;;;;;;;;;;;;;;;;;5094984;28;19923;-84
2023/02/17 00:48:31;;;;;;;;;;;;;;;;;;5094929;28;20429;-85
2023/02/17 00:50:57;;;;;;;;;;;;;;;;;;5093611;28;19938;-85
2023/02/17 00:53:22;;;;;;;;;;;;;;;;;;5094702;28;19916;-85
2023/02/17 00:55:49;;;;;;;;;;;;;;;;;;5094083;28;20470;-86
2023/02/17 00:58:14;;;;;;;;;;;;;;;;;;5093339;28;20022;-86
2023/02/17 01:00:40;;;;;;;;;;;;;;;;;;5094887;28;19950;-85
2023/02/17 01:03:05;;;;;;;;;;;;;;;;;;5093222;28;19916;-87
2023/02/17 01:05:30;;;;;;;;;;;;;;;;;;5094531;28;19923;-84
2023/02/17 01:07:56;;;;;;;;;;;;;;;;;;5127523;27;20291;-84
2023/02/17 01:10:21;;;;;;;;;;;;;;;;;;5094530;28;20456;-86
2023/02/17 01:12:47;;;;;;;;;;;;;;;;;;5094350;28;19926;-85
2023/02/17 01:15:12;;;;;;;;;;;;;;;;;;5094279;28;19923;-83
2023/02/17 01:17:37;;;;;;;;;;;;;;;;;;5093033;28;20286;-84
2023/02/17 01:20:03;;;;;;;;;;;;;;;;;;5127124;27;19916;-83
2023/02/17 01:22:29;;;;;;;;;;;;;;;;;;5095206;28;19927;-84
2023/02/17 01:24:54;;;;;;;;;;;;;;;;;;5094843;28;19916;-83
2023/02/17 01:27:19;;;;;;;;;;;;;;;;;;5094529;28;19923;-83
2023/02/17 01:29:45;;;;;;;;;;;;;;;;;;5094319;28;19916;-83
2023/02/17 01:32:11;;;;;;;;;;;;;;;;;;5092954;28;19916;-86
2023/02/17 01:34:36;;;;;;;;;;;;;;;;;;5094165;28;20299;-83
2023/02/17 01:37:02;;;;;;;;;;;;;;;;;;5094716;28;19920;-83
2023/02/17 01:39:27;;;;;;;;;;;;;;;;;;5114700;28;19920;-84
2023/02/17 01:41:52;;;;;;;;;;;;;;;;;;5113120;28;19916;-84
2023/02/17 01:44:20;;;;;;;;;;;;;;;;;;5108647;28;19928;-83
2023/02/17 01:46:47;;;;;;;;;;;;;;;;;;5100191;28;19920;-85
2023/02/17 01:49:21;;;;;;;;;;;;;;;;;;5095768;28;19970;-84
2023/02/17 01:51:50;;;;;;;;;;;;;;;;;;5093148;28;20367;-85
2023/02/17 01:54:19;;;;;;;;;;;;;;;;;;5094055;28;19920;-85
2023/02/17 01:56:46;;;;;;;;;;;;;;;;;;5126777;27;20003;-84
2023/02/17 01:59:15;;;;;;;;;;;;;;;;;;5093744;28;19916;-85
2023/02/17 02:01:40;;;;;;;;;;;;;;;;;;5093699;28;19912;-84
2023/02/17 02:04:06;;;;;;;;;;;;;;;;;;5092279;28;19939;-86
2023/02/17 02:06:33;;;;;;;;;;;;;;;;;;5093600;28;19951;-84
2023/02/17 02:09:19;;;;;;;;;;;;;;;;;;5092009;28;20390;-86
2023/02/17 02:11:46;;;;;;;;;;;;;;;;;;5093326;28;19927;-86
2023/02/17 02:14:12;;;;;;;;;;;;;;;;;;5093530;28;19947;-85
2023/02/17 02:16:50;;;;;;;;;;;;;;;;;;5092020;28;20438;-87
2023/02/17 02:19:16;;;;;;;;;;;;;;;;;;5093497;28;19973;-86
2023/02/17 02:21:56;;;;;;;;;;;;;;;;;;5093317;28;19920;-86
2023/02/17 02:24:57;;;;;;;;;;;;;;;;;;5093369;28;19955;-84
2023/02/17 02:27:34;;;;;;;;;;;;;;;;;;5054020;28;19939;-85
2023/02/17 02:30:20;;;;;;;;;;;;;;;;;;5054239;28;19916;-88
2023/02/17 02:32:51;;;;;;;;;;;;;;;;;;5070213;28;19955;-86
2023/02/17 02:35:35;;;;;;;;;;;;;;;;;;5070805;28;20386;-85
2023/02/17 02:38:00;;;;;;;;;;;;;;;;;;5070864;28;20014;-85
2023/02/17 02:40:27;;;;;;;;;;;;;;;;;;5070691;28;20065;-87
2023/02/17 02:42:53;;;;;;;;;;;;;;;;;;5070774;28;19916;-88
2023/02/17 02:45:18;;;;;;;;;;;;;;;;;;5070706;28;19927;-84
2023/02/17 02:47:44;;;;;;;;;;;;;;;;;;5070620;28;19923;-85
2023/02/17 02:50:11;;;;;;;;;;;;;;;;;;5053833;28;19939;-86
2023/02/17 02:52:44;;;;;;;;;;;;;;;;;;5070586;28;20300;-85
2023/02/17 02:55:42;;;;;;;;;;;;;;;;;;5070501;28;19946;-84
2023/02/17 02:58:39;;;;;;;;;;;;;;;;;;5027225;28;19916;-86
2023/02/17 03:01:05;;;;;;;;;;;;;;;;;;5035723;28;19916;-83
2023/02/17 03:03:30;;;;;;;;;;;;;;;;;;5093051;28;19919;-84
2023/02/17 03:05:55;;;;;;;;;;;;;;;;;;5091750;28;19922;-83
2023/02/17 03:08:32;;;;;;;;;;;;;;;;;;5093168;28;20440;-83
2023/02/17 03:10:59;;;;;;;;;;;;;;;;;;5093231;28;19913;-86
2023/02/17 03:13:24;;;;;;;;;;;;;;;;;;5092932;28;19920;-85
2023/02/17 03:15:50;;;;;;;;;;;;;;;;;;5093199;28;20015;-85
2023/02/17 03:18:15;;;;;;;;;;;;;;;;;;5092979;28;20323;-83
2023/02/17 03:21:07;;;;;;;;;;;;;;;;;;5095917;28;19939;-84
2023/02/17 03:23:32;;;;;;;;;;;;;;;;;;5095705;28;19923;-83
2023/02/17 03:25:57;;;;;;;;;;;;;;;;;;5112257;28;19916;-84
2023/02/17 03:28:23;;;;;;;;;;;;;;;;;;5096474;28;19961;-84
2023/02/17 03:30:49;;;;;;;;;;;;;;;;;;5096442;28;19931;-84
2023/02/17 03:33:14;;;;;;;;;;;;;;;;;;5129195;27;19920;-83
2023/02/17 03:35:40;;;;;;;;;;;;;;;;;;5095163;28;19927;-85
2023/02/17 03:38:05;;;;;;;;;;;;;;;;;;5096297;28;19919;-83
2023/02/17 03:40:30;;;;;;;;;;;;;;;;;;5129133;27;20364;-83
2023/02/17 03:42:56;;;;;;;;;;;;;;;;;;5096288;28;19925;-83
2023/02/17 03:45:22;;;;;;;;;;;;;;;;;;5096266;28;19919;-83
2023/02/17 03:47:47;;;;;;;;;;;;;;;;;;5096300;28;19962;-83
2023/02/17 03:50:13;;;;;;;;;;;;;;;;;;5129156;27;19916;-83
2023/02/17 03:52:38;;;;;;;;;;;;;;;;;;5096038;28;19963;-82
2023/02/17 03:55:04;;;;;;;;;;;;;;;;;;5096236;28;19924;-83
2023/02/17 03:57:30;;;;;;;;;;;;;;;;;;5096009;28;19919;-83
2023/02/17 03:59:56;;;;;;;;;;;;;;;;;;5095961;28;20439;-83
2023/02/17 04:02:21;;;;;;;;;;;;;;;;;;5074891;28;19974;-85
2023/02/17 04:04:47;;;;;;;;;;;;;;;;;;5067130;28;19920;-86
2023/02/17 04:07:12;;;;;;;;;;;;;;;;;;5082523;28;19923;-86
2023/02/17 04:09:38;;;;;;;;;;;;;;;;;;5075129;28;19925;-85
2023/02/17 04:12:03;;;;;;;;;;;;;;;;;;5078810;28;19924;-84
2023/02/17 04:14:29;;;;;;;;;;;;;;;;;;5085272;28;19920;-85
2023/02/17 04:16:54;;;;;;;;;;;;;;;;;;5095735;28;19937;-85
2023/02/17 04:19:19;;;;;;;;;;;;;;;;;;5095462;28;20290;-84
2023/02/17 04:21:45;;;;;;;;;;;;;;;;;;5095572;28;19919;-85
2023/02/17 04:24:10;;;;;;;;;;;;;;;;;;5094144;28;19923;-85
2023/02/17 04:26:36;;;;;;;;;;;;;;;;;;5094256;28;19974;-86
2023/02/17 04:29:02;;;;;;;;;;;;;;;;;;5095464;28;19918;-84
2023/02/17 04:31:28;;;;;;;;;;;;;;;;;;5084273;28;19925;-84
2023/02/17 04:33:53;;;;;;;;;;;;;;;;;;5060952;28;20308;-87
2023/02/17 04:36:19;;;;;;;;;;;;;;;;;;5062410;28;19932;-85
2023/02/17 04:38:44;;;;;;;;;;;;;;;;;;5061320;28;19925;-84
2023/02/17 04:41:10;;;;;;;;;;;;;;;;;;5056102;28;20341;-86
2023/02/17 04:43:35;;;;;;;;;;;;;;;;;;5084404;28;19920;-83
2023/02/17 04:46:01;;;;;;;;;;;;;;;;;;5074906;28;20078;-86
2023/02/17 04:48:26;;;;;;;;;;;;;;;;;;5068592;28;19952;-88
2023/02/17 04:50:52;;;;;;;;;;;;;;;;;;5059703;28;19921;-82
2023/02/17 04:53:18;;;;;;;;;;;;;;;;;;5061864;28;19967;-83
2023/02/17 04:55:43;;;;;;;;;;;;;;;;;;5053638;28;19952;-83
2023/02/17 04:58:09;;;;;;;;;;;;;;;;;;5058595;28;19931;-83
2023/02/17 05:00:34;;;;;;;;;;;;;;;;;;5062728;28;20463;-83
2023/02/17 05:02:59;;;;;;;;;;;;;;;;;;5060872;28;19975;-83
2023/02/17 05:05:25;;;;;;;;;;;;;;;;;;5065181;28;19970;-85
2023/02/17 05:07:50;;;;;;;;;;;;;;;;;;5070247;28;20335;-84
2023/02/17 05:10:16;;;;;;;;;;;;;;;;;;5072627;28;19974;-86
2023/02/17 05:12:41;;;;;;;;;;;;;;;;;;5088968;28;19973;-83
2023/02/17 05:15:07;;;;;;;;;;;;;;;;;;5094333;28;20283;-85
2023/02/17 05:17:32;;;;;;;;;;;;;;;;;;5093115;28;19916;-83
2023/02/17 05:19:58;;;;;;;;;;;;;;;;;;5094263;28;19959;-83
2023/02/17 05:22:23;;;;;;;;;;;;;;;;;;5093232;28;20011;-84
2023/02/17 05:24:49;;;;;;;;;;;;;;;;;;5085167;28;19981;-84
2023/02/17 05:27:14;;;;;;;;;;;;;;;;;;5092572;28;19916;-83
2023/02/17 05:29:39;;;;;;;;;;;;;;;;;;5094426;28;19916;-84
2023/02/17 05:32:05;;;;;;;;;;;;;;;;;;5094475;28;19916;-86
2023/02/17 05:34:31;;;;;;;;;;;;;;;;;;5094184;28;19916;-83
2023/02/17 05:36:56;;;;;;;;;;;;;;;;;;5094193;28;19916;-83
2023/02/17 05:39:21;;;;;;;;;;;;;;;;;;5094064;28;20299;-84
2023/02/17 05:41:47;;;;;;;;;;;;;;;;;;5092425;28;19928;-84
2023/02/17 05:44:12;;;;;;;;;;;;;;;;;;5093863;28;19973;-84
2023/02/17 05:46:38;;;;;;;;;;;;;;;;;;5096717;28;19920;-84
2023/02/17 05:49:03;;;;;;;;;;;;;;;;;;5109355;28;19927;-84
2023/02/17 05:51:29;;;;;;;;;;;;;;;;;;5100382;28;19924;-83
2023/02/17 05:53:54;;;;;;;;;;;;;;;;;;5109579;28;19916;-84
2023/02/17 05:56:19;;;;;;;;;;;;;;;;;;5103772;28;20003;-87
2023/02/17 05:58:45;;;;;;;;;;;;;;;;;;5094791;28;19916;-86
2023/02/17 06:01:10;;;;;;;;;;;;;;;;;;5094408;28;20011;-88
2023/02/17 06:03:36;;;;;;;;;;;;;;;;;;5093950;28;19961;-85
2023/02/17 06:06:01;;;;;;;;;;;;;;;;;;5092359;28;19951;-86
2023/02/17 06:08:27;;;;;;;;;;;;;;;;;;5093595;28;20006;-87
2023/02/17 06:10:52;;;;;;;;;;;;;;;;;;5093817;28;19923;-85
2023/02/17 06:13:18;;;;;;;;;;;;;;;;;;5091859;28;20391;-87
2023/02/17 06:15:43;;;;;;;;;;;;;;;;;;5093618;28;19923;-89
2023/02/17 06:18:09;;;;;;;;;;;;;;;;;;5093431;28;19920;-87
2023/02/17 06:20:34;;;;;;;;;;;;;;;;;;5092214;28;20394;-87
2023/02/17 06:22:59;;;;;;;;;;;;;;;;;;5093337;28;19966;-86
2023/02/17 06:25:25;;;;;;;;;;;;;;;;;;5093641;28;19927;-85
2023/02/17 06:27:50;;;;;;;;;;;;;;;;;;5093279;28;19927;-87
2023/02/17 06:30:16;;;;;;;;;;;;;;;;;;5093417;28;19923;-84
2023/02/17 06:32:42;;;;;;;;;;;;;;;;;;5093205;28;19974;-86
2023/02/17 06:35:07;;;;;;;;;;;;;;;;;;5091911;28;20423;-85
2023/02/17 06:37:33;;;;;;;;;;;;;;;;;;5091927;28;19917;-84
2023/02/17 06:39:58;;;;;;;;;;;;;;;;;;5093238;28;20464;-83
2023/02/17 06:42:24;;;;;;;;;;;;;;;;;;5091880;28;19923;-84
2023/02/17 06:44:49;;;;;;;;;;;;;;;;;;5093137;28;19920;-83
2023/02/17 06:47:15;;;;;;;;;;;;;;;;;;5093159;28;19924;-83
2023/02/17 06:49:40;;;;;;;;;;;;;;;;;;5093089;28;19939;-82
2023/02/17 06:52:05;;;;;;;;;;;;;;;;;;5092917;28;19916;-83
2023/02/17 06:54:31;;;;;;;;;;;;;;;;;;5092704;28;19971;-83
2023/02/17 06:56:56;;;;;;;;;;;;;;;;;;5096966;28;19947;-82
2023/02/17 06:59:22;;;;;;;;;;;;;;;;;;5095596;28;20044;-82
2023/02/17 07:01:49;;;;;;;;;;;;;;;;;;5095576;28;19924;-82
2023/02/17 07:04:14;;;;;;;;;;;;;;;;;;5096840;28;19923;-82
2023/02/17 07:06:40;;;;;;;;;;;;;;;;;;5095542;28;20291;-82
2023/02/17 07:09:05;;;;;;;;;;;;;;;;;;5096808;28;19942;-83
2023/02/17 07:11:31;;;;;;;;;;;;;;;;;;5096491;28;20372;-85
2023/02/17 07:13:57;;;;;;;;;;;;;;;;;;5096460;28;19917;-87
2023/02/17 07:16:23;;;;;;;;;;;;;;;;;;5096642;28;20330;-85
2023/02/17 07:18:49;;;;;;;;;;;;;;;;;;5096498;28;19920;-84
2023/02/17 07:21:14;;;;;;;;;;;;;;;;;;5095174;28;19926;-86
2023/02/17 07:23:39;;;;;;;;;;;;;;;;;;5096415;28;20283;-86
2023/02/17 07:26:07;;;;;;;;;;;;;;;;;;5096303;28;19970;-84
2023/02/17 07:28:33;;;;;;;;;;;;;;;;;;5096382;28;19920;-85
2023/02/17 07:31:08;;;;;;;;;;;;;;;;;;5096413;28;20299;-84
2023/02/17 07:33:34;;;;;;;;;;;;;;;;;;5096190;28;20035;-83
2023/02/17 07:35:59;;;;;;;;;;;;;;;;;;5096305;28;19916;-84
2023/02/17 07:38:24;;;;;;;;;;;;;;;;;;5095128;28;19920;-85
2023/02/17 07:40:50;;;;;;;;;;;;;;;;;;5096182;28;19920;-84
2023/02/17 07:43:15;;;;;;;;;;;;;;;;;;5096093;28;19927;-83
2023/02/17 07:45:41;;;;;;;;;;;;;;;;;;5096025;28;19920;-84
2023/02/17 07:48:06;;;;;;;;;;;;;;;;;;5096184;28;20027;-84
2023/02/17 07:50:32;;;;;;;;;;;;;;;;;;5095854;28;20360;-83
2023/02/17 07:52:58;;;;;;;;;;;;;;;;;;5095842;28;20289;-84
2023/02/17 07:55:23;;;;;;;;;;;;;;;;;;5094640;28;19916;-83
2023/02/17 07:57:48;;;;;;;;;;;;;;;;;;5094628;28;20333;-85
2023/02/17 08:00:14;;;;;;;;;;;;;;;;;;5094508;28;19916;-84
2023/02/17 08:02:40;;;;;;;;;;;;;;;;;;5095718;28;20402;-87
2023/02/17 08:05:05;;;;;;;;;;;;;;;;;;5094073;28;19998;-85
2023/02/17 08:07:31;;;;;;;;;;;;;;;;;;5094395;28;20382;-88
2023/02/17 08:15:25;;;;;;;;;;;;;;;;;;5095748;28;19969;-86
2023/02/17 08:17:52;;;;;;;;;;;;;;;;;;5095398;28;19920;-85
2023/02/17 08:20:17;;;;;;;;;;;;;;;;;;5095352;28;20368;-86
2023/02/17 08:22:43;;;;;;;;;;;;;;;;;;5095390;28;19980;-86
2023/02/17 08:25:08;;;;;;;;;;;;;;;;;;5093958;28;19928;-83
2023/02/17 08:27:34;;;;;;;;;;;;;;;;;;5095112;28;20379;-86
2023/02/17 08:29:59;;;;;;;;;;;;;;;;;;5095159;28;20288;-83
2023/02/17 08:32:25;;;;;;;;;;;;;;;;;;5093747;28;20024;-86
2023/02/17 08:34:54;;;;;;;;;;;;;;;;;;5095099;28;19916;-83
2023/02/17 08:37:19;;;;;;;;;;;;;;;;;;5094940;28;19920;-83
2023/02/17 08:39:44;;;;;;;;;;;;;;;;;;5095015;28;19923;-86
2023/02/17 08:42:10;;;;;;;;;;;;;;;;;;5093638;28;20287;-83
2023/02/17 08:44:36;;;;;;;;;;;;;;;;;;5093526;28;19923;-84
2023/02/17 08:47:03;;;;;;;;;;;;;;;;;;5093512;28;19916;-83
2023/02/17 08:49:31;;;;;;;;;;;;;;;;;;5094763;28;19916;-84
2023/02/17 08:51:56;;;;;;;;;;;;;;;;;;5093314;28;19962;-83
2023/02/17 08:54:22;;;;;;;;;;;;;;;;;;5093414;28;19924;-86
2023/02/17 08:56:47;;;;;;;;;;;;;;;;;;5094564;28;20292;-84
2023/02/17 08:59:12;;;;;;;;;;;;;;;;;;5094527;28;19923;-83
2023/02/17 09:01:38;;;;;;;;;;;;;;;;;;5094461;28;19923;-84
2023/02/17 09:04:05;;;;;;;;;;;;;;;;;;5093210;28;19916;-84
2023/02/17 09:06:39;;;;;;;;;;;;;;;;;;5093230;28;19916;-83
2023/02/17 09:09:05;;;;;;;;;;;;;;;;;;5094423;28;19916;-85
2023/02/17 09:11:30;;;;;;;;;;;;;;;;;;5092948;28;20046;-83
2023/02/17 09:13:56;;;;;;;;;;;;;;;;;;5126939;27;20019;-83
2023/02/17 09:16:23;;;;;;;;;;;;;;;;;;5094195;28;19920;-83
2023/02/17 09:18:52;;;;;;;;;;;;;;;;;;5092610;28;20387;-84
2023/02/17 09:21:17;;;;;;;;;;;;;;;;;;5092839;28;19978;-84
2023/02/17 09:23:43;;;;;;;;;;;;;;;;;;5092867;28;19959;-84
2023/02/17 09:26:09;;;;;;;;;;;;;;;;;;5094016;28;20280;-84
2023/02/17 09:28:34;;;;;;;;;;;;;;;;;;5094191;28;20286;-84
2023/02/17 09:31:10;;;;;;;;;;;;;;;;;;5094133;28;19916;-85
2023/02/17 09:33:36;;;;;;;;;;;;;;;;;;5081690;28;19921;-84
2023/02/17 09:36:02;;;;;;;;;;;;;;;;;;5073725;28;19925;-85
2023/02/17 09:38:27;;;;;;;;;;;;;;;;;;5071185;28;19916;-83
2023/02/17 09:40:52;;;;;;;;;;;;;;;;;;5058442;28;19925;-85
2023/02/17 09:43:21;;;;;;;;;;;;;;;;;;5068982;28;19920;-85
2023/02/17 09:45:49;;;;;;;;;;;;;;;;;;5054223;28;19924;-85
2023/02/17 09:48:16;;;;;;;;;;;;;;;;;;5062054;28;20011;-84
2023/02/17 09:50:58;;;;;;;;;;;;;;;;;;5093001;28;19927;-85
2023/02/17 09:53:33;;;;;;;;;;;;;;;;;;5075255;28;19920;-84
2023/02/17 09:56:00;;;;;;;;;;;;;;;;;;5085581;28;19923;-85
2023/02/17 09:58:30;;;;;;;;;;;;;;;;;;5074354;28;19916;-86
2023/02/17 10:00:57;;;;;;;;;;;;;;;;;;5073484;28;19920;-86
2023/02/17 10:03:29;;;;;;;;;;;;;;;;;;5073667;28;20372;-85
2023/02/17 10:06:04;;;;;;;;;;;;;;;;;;5073880;28;19999;-88
2023/02/17 10:08:32;;;;;;;;;;;;;;;;;;5073717;28;19920;-87
2023/02/17 10:11:04;;;;;;;;;;;;;;;;;;5072461;28;19995;-86
2023/02/17 10:13:31;;;;;;;;;;;;;;;;;;5072036;28;19924;-86
2023/02/17 10:15:59;;;;;;;;;;;;;;;;;;5073387;28;19927;-87
2023/02/17 10:18:31;;;;;;;;;;;;;;;;;;5073660;28;19923;-86
2023/02/17 10:21:06;;;;;;;;;;;;;;;;;;5072083;28;19966;-84
2023/02/17 10:23:32;;;;;;;;;;;;;;;;;;5074827;28;19920;-84
2023/02/17 10:26:00;;;;;;;;;;;;;;;;;;5072063;28;19916;-86
2023/02/17 10:28:28;;;;;;;;;;;;;;;;;;5074222;28;20372;-85
2023/02/17 10:30:54;;;;;;;;;;;;;;;;;;5077275;28;20003;-84
2023/02/17 10:33:27;;;;;;;;;;;;;;;;;;5077252;28;20011;-84
2023/02/17 10:35:57;;;;;;;;;;;;;;;;;;5077609;28;19943;-85
2023/02/17 10:38:31;;;;;;;;;;;;;;;;;;5077131;28;19916;-84
2023/02/17 10:40:58;;;;;;;;;;;;;;;;;;5077157;28;19916;-84
2023/02/17 10:43:26;;;;;;;;;;;;;;;;;;5077029;28;19916;-84
2023/02/17 10:45:52;;;;;;;;;;;;;;;;;;5077049;28;19916;-86
2023/02/17 10:48:22;;;;;;;;;;;;;;;;;;5075655;28;20379;-85
2023/02/17 10:50:48;;;;;;;;;;;;;;;;;;5075642;28;20339;-83
2023/02/17 10:53:16;;;;;;;;;;;;;;;;;;5076805;28;19920;-85
2023/02/17 10:55:49;;;;;;;;;;;;;;;;;;5076719;28;19924;-86
2023/02/17 10:58:19;;;;;;;;;;;;;;;;;;5076799;28;19978;-84
2023/02/17 11:00:46;;;;;;;;;;;;;;;;;;5065381;28;19945;-85
2023/02/17 11:03:18;;;;;;;;;;;;;;;;;;5054864;28;19924;-85
2023/02/17 11:05:51;;;;;;;;;;;;;;;;;;5087582;28;20003;-85
2023/02/17 11:08:26;;;;;;;;;;;;;;;;;;5055578;28;20003;-86
2023/02/17 11:11:05;;;;;;;;;;;;;;;;;;5055719;28;19917;-84
2023/02/17 11:13:39;;;;;;;;;;;;;;;;;;5055471;28;19921;-84
2023/02/17 11:16:04;;;;;;;;;;;;;;;;;;5088123;28;20266;-84
2023/02/17 11:18:34;;;;;;;;;;;;;;;;;;5056393;28;19928;-85
2023/02/17 11:21:07;;;;;;;;;;;;;;;;;;5054916;28;20276;-85
2023/02/17 11:23:33;;;;;;;;;;;;;;;;;;5056269;28;19917;-85
2023/02/17 11:26:00;;;;;;;;;;;;;;;;;;5056162;28;20012;-85
2023/02/17 11:28:26;;;;;;;;;;;;;;;;;;5056195;28;19921;-87
2023/02/17 11:30:56;;;;;;;;;;;;;;;;;;5056070;28;19920;-84
2023/02/17 11:33:30;;;;;;;;;;;;;;;;;;5088190;28;20342;-85
2023/02/17 11:35:56;;;;;;;;;;;;;;;;;;5056008;28;19916;-85
2023/02/17 11:38:24;;;;;;;;;;;;;;;;;;5088136;28;19940;-85
2023/02/17 11:40:57;;;;;;;;;;;;;;;;;;5055120;28;19921;-85
2023/02/17 11:43:23;;;;;;;;;;;;;;;;;;5055836;28;19919;-85
2023/02/17 11:45:54;;;;;;;;;;;;;;;;;;5055862;28;19920;-85
2023/02/17 11:48:19;;;;;;;;;;;;;;;;;;5088135;28;19939;-85
2023/02/17 11:50:54;;;;;;;;;;;;;;;;;;5055787;28;20368;-86
2023/02/17 11:53:32;;;;;;;;;;;;;;;;;;5055610;28;19920;-85
2023/02/17 11:56:01;;;;;;;;;;;;;;;;;;5054424;28;19927;-85
2023/02/17 11:58:32;;;;;;;;;;;;;;;;;;5055654;28;19917;-87
2023/02/17 12:01:24;;;;;;;;;;;;;;;;;;5054202;28;19921;-86
2023/02/17 12:04:11;;;;;;;;;;;;;;;;;;5046770;28;19921;-84
2023/02/17 12:06:43;;;;;;;;;;;;;;;;;;5054156;28;19917;-83
2023/02/17 12:09:17;;;;;;;;;;;;;;;;;;5055377;28;20007;-85
2023/02/17 12:12:02;;;;;;;;;;;;;;;;;;5053780;28;19944;-86
2023/02/17 12:14:34;;;;;;;;;;;;;;;;;;5053589;28;20751;-84
2023/02/17 12:17:23;;;;;;;;;;;;;;;;;;5055124;28;19921;-85
2023/02/17 12:19:48;;;;;;;;;;;;;;;;;;5051951;28;19917;-84
2023/02/17 12:22:19;;;;;;;;;;;;;;;;;;5055213;28;19928;-86
2023/02/17 12:24:53;;;;;;;;;;;;;;;;;;5055104;28;19920;-84
2023/02/17 12:27:29;;;;;;;;;;;;;;;;;;5055018;28;20055;-84
2023/02/17 12:29:55;;;;;;;;;;;;;;;;;;5055028;28;20369;-85
2023/02/17 12:32:20;;;;;;;;;;;;;;;;;;5054791;28;19924;-85
2023/02/17 12:34:51;;;;;;;;;;;;;;;;;;5054923;28;20292;-84
2023/02/17 12:37:19;;;;;;;;;;;;;;;;;;5054907;28;19912;-86
2023/02/17 12:39:48;;;;;;;;;;;;;;;;;;5054805;28;19932;-84
2023/02/17 12:42:24;;;;;;;;;;;;;;;;;;5054591;28;19913;-84
2023/02/17 12:44:52;;;;;;;;;;;;;;;;;;5054755;28;19920;-85
2023/02/17 12:47:24;;;;;;;;;;;;;;;;;;5053316;28;19912;-84
2023/02/17 12:50:09;;;;;;;;;;;;;;;;;;5070034;28;19947;-83
2023/02/17 12:52:40;;;;;;;;;;;;;;;;;;5053458;28;19948;-84
2023/02/17 12:55:20;;;;;;;;;;;;;;;;;;5086759;28;19924;-84
2023/02/17 12:57:57;;;;;;;;;;;;;;;;;;5086677;28;19916;-85
2023/02/17 13:00:26;;;;;;;;;;;;;;;;;;5054468;28;19923;-86
2023/02/17 13:02:56;;;;;;;;;;;;;;;;;;5054320;28;20376;-85
2023/02/17 13:05:24;;;;;;;;;;;;;;;;;;5069962;28;20335;-86
2023/02/17 13:07:55;;;;;;;;;;;;;;;;;;5052972;28;19924;-84
2023/02/17 13:10:28;;;;;;;;;;;;;;;;;;5054230;28;19916;-84
2023/02/17 13:12:55;;;;;;;;;;;;;;;;;;5086271;28;19960;-85
2023/02/17 13:15:25;;;;;;;;;;;;;;;;;;5086469;28;19917;-84
2023/02/17 13:17:52;;;;;;;;;;;;;;;;;;5054161;28;19912;-85
2023/02/17 13:20:18;;;;;;;;;;;;;;;;;;5054251;28;19921;-84
2023/02/17 13:22:43;;;;;;;;;;;;;;;;;;5052756;28;20291;-84
2023/02/17 13:25:13;;;;;;;;;;;;;;;;;;5054046;28;19975;-85
2023/02/17 13:27:39;;;;;;;;;;;;;;;;;;5054139;28;19967;-84
2023/02/17 13:30:08;;;;;;;;;;;;;;;;;;5086531;28;20288;-84
2023/02/17 13:32:35;;;;;;;;;;;;;;;;;;5054002;28;19925;-84
2023/02/17 13:35:06;;;;;;;;;;;;;;;;;;5086132;28;20011;-84
2023/02/17 13:37:31;;;;;;;;;;;;;;;;;;5053853;28;19959;-84
2023/02/17 13:39:57;;;;;;;;;;;;;;;;;;5052470;28;19960;-84
2023/02/17 13:42:39;;;;;;;;;;;;;;;;;;5057338;28;19924;-85
2023/02/17 13:45:23;;;;;;;;;;;;;;;;;;5053704;28;19928;-84
2023/02/17 13:47:50;;;;;;;;;;;;;;;;;;5055260;28;20427;-86
2023/02/17 13:50:26;;;;;;;;;;;;;;;;;;5067954;28;19987;-84
2023/02/17 13:52:52;;;;;;;;;;;;;;;;;;5057181;28;20401;-85
2023/02/17 13:55:18;;;;;;;;;;;;;;;;;;5055580;28;19924;-85
2023/02/17 13:57:43;;;;;;;;;;;;;;;;;;5053893;28;19924;-84
2023/02/17 14:00:12;;;;;;;;;;;;;;;;;;5053455;28;19928;-86
2023/02/17 14:03:03;;;;;;;;;;;;;;;;;;5053442;28;20325;-86
2023/02/17 14:05:29;;;;;;;;;;;;;;;;;;5052143;28;19921;-85
2023/02/17 14:08:27;;;;;;;;;;;;;;;;;;5053312;28;19917;-85
2023/02/17 14:10:52;;;;;;;;;;;;;;;;;;5040416;28;19917;-85
2023/02/17 14:13:18;;;;;;;;;;;;;;;;;;5068433;28;19931;-86
2023/02/17 14:15:50;;;;;;;;;;;;;;;;;;5052488;28;20309;-85
2023/02/17 14:18:25;;;;;;;;;;;;;;;;;;5056867;28;19921;-85
2023/02/17 14:20:58;;;;;;;;;;;;;;;;;;5057361;28;19986;-86
2023/02/17 14:23:24;;;;;;;;;;;;;;;;;;5087976;28;20307;-86
2023/02/17 14:25:51;;;;;;;;;;;;;;;;;;5093386;28;19920;-86
2023/02/17 14:28:21;;;;;;;;;;;;;;;;;;5093252;28;19955;-86
2023/02/17 14:30:47;;;;;;;;;;;;;;;;;;5066715;28;19932;-87
2023/02/17 14:33:14;;;;;;;;;;;;;;;;;;5060646;28;19978;-87
2023/02/17 14:35:48;;;;;;;;;;;;;;;;;;5059233;28;19936;-88
2023/02/17 14:38:35;;;;;;;;;;;;;;;;;;5066426;28;20346;-89
2023/02/17 14:41:00;;;;;;;;;;;;;;;;;;5068847;28;19920;-86
2023/02/17 14:43:26;;;;;;;;;;;;;;;;;;5057369;28;19939;-86
2023/02/17 14:45:52;;;;;;;;;;;;;;;;;;5063388;28;19924;-87
2023/02/17 14:48:17;;;;;;;;;;;;;;;;;;5066646;28;19966;-87
2023/02/17 14:50:43;;;;;;;;;;;;;;;;;;5071640;28;19916;-86
2023/02/17 14:53:29;;;;;;;;;;;;;;;;;;5072893;28;20646;-86
2023/02/17 14:56:14;;;;;;;;;;;;;;;;;;5072654;28;20304;-85
2023/02/17 14:58:40;;;;;;;;;;;;;;;;;;5072460;28;20387;-86
2023/02/17 15:01:05;;;;;;;;;;;;;;;;;;5072943;28;19956;-86
2023/02/17 15:03:31;;;;;;;;;;;;;;;;;;5072922;28;19944;-85
2023/02/17 15:05:58;;;;;;;;;;;;;;;;;;5072894;28;19917;-85
2023/02/17 15:08:31;;;;;;;;;;;;;;;;;;5072791;28;19917;-87
2023/02/17 15:10:57;;;;;;;;;;;;;;;;;;5072829;28;19916;-85
2023/02/17 15:13:22;;;;;;;;;;;;;;;;;;5072392;28;19966;-87
2023/02/17 15:15:48;;;;;;;;;;;;;;;;;;5074089;28;19920;-86
2023/02/17 15:18:15;;;;;;;;;;;;;;;;;;5079855;28;20296;-86
2023/02/17 15:20:42;;;;;;;;;;;;;;;;;;5096555;28;19928;-86
2023/02/17 15:23:18;;;;;;;;;;;;;;;;;;5096545;28;19917;-85
2023/02/17 15:25:44;;;;;;;;;;;;;;;;;;5093227;28;20265;-86
2023/02/17 15:28:13;;;;;;;;;;;;;;;;;;5096370;28;19931;-85
2023/02/17 15:30:38;;;;;;;;;;;;;;;;;;5095641;28;19923;-86
2023/02/17 15:33:08;;;;;;;;;;;;;;;;;;5095333;28;20305;-86
2023/02/17 15:35:34;;;;;;;;;;;;;;;;;;5094651;28;20038;-85
2023/02/17 15:37:59;;;;;;;;;;;;;;;;;;5095827;28;20418;-85
2023/02/17 15:40:25;;;;;;;;;;;;;;;;;;5094447;28;19923;-87
2023/02/17 15:42:55;;;;;;;;;;;;;;;;;;5095638;28;19916;-85
2023/02/17 15:45:21;;;;;;;;;;;;;;;;;;5096060;28;20375;-86
2023/02/17 15:47:47;;;;;;;;;;;;;;;;;;5096150;28;19969;-85
2023/02/17 15:50:16;;;;;;;;;;;;;;;;;;5096121;28;19912;-84
2023/02/17 15:52:42;;;;;;;;;;;;;;;;;;5094531;28;20009;-87
2023/02/17 15:55:07;;;;;;;;;;;;;;;;;;5094706;28;19916;-84
2023/02/17 15:57:33;;;;;;;;;;;;;;;;;;5095854;28;20371;-85
2023/02/17 15:59:59;;;;;;;;;;;;;;;;;;5095750;28;19920;-85
2023/02/17 16:02:24;;;;;;;;;;;;;;;;;;5095723;28;20447;-86
2023/02/17 16:04:50;;;;;;;;;;;;;;;;;;5095615;28;19916;-85
2023/02/17 16:07:15;;;;;;;;;;;;;;;;;;5094494;28;20379;-84
2023/02/17 16:09:41;;;;;;;;;;;;;;;;;;5095936;28;19958;-84
2023/02/17 16:12:15;;;;;;;;;;;;;;;;;;5094168;28;19920;-84
2023/02/17 16:14:40;;;;;;;;;;;;;;;;;;5083257;28;19924;-85
2023/02/17 16:17:11;;;;;;;;;;;;;;;;;;5061151;28;20400;-84
2023/02/17 16:19:37;;;;;;;;;;;;;;;;;;5055364;28;19917;-85
2023/02/17 16:22:02;;;;;;;;;;;;;;;;;;5077401;28;19955;-84
2023/02/17 16:24:27;;;;;;;;;;;;;;;;;;5075308;28;20295;-86
2023/02/17 16:26:53;;;;;;;;;;;;;;;;;;5073628;28;20399;-85
2023/02/17 16:29:19;;;;;;;;;;;;;;;;;;5075180;28;19975;-86
2023/02/17 16:31:45;;;;;;;;;;;;;;;;;;5075136;28;19916;-85
2023/02/17 16:34:14;;;;;;;;;;;;;;;;;;5075408;28;19962;-87
2023/02/17 16:36:39;;;;;;;;;;;;;;;;;;5076030;28;19923;-87
2023/02/17 16:39:12;;;;;;;;;;;;;;;;;;5076422;28;20007;-88
2023/02/17 16:41:38;;;;;;;;;;;;;;;;;;5075337;28;19916;-86
2023/02/17 16:44:03;;;;;;;;;;;;;;;;;;5075393;28;19939;-87
2023/02/17 16:46:30;;;;;;;;;;;;;;;;;;5073743;28;19920;-89
2023/02/17 16:48:56;;;;;;;;;;;;;;;;;;5075323;28;19923;-86
2023/02/17 16:51:22;;;;;;;;;;;;;;;;;;5075020;28;19922;-88
2023/02/17 16:53:47;;;;;;;;;;;;;;;;;;5074434;28;19942;-87
2023/02/17 16:56:24;;;;;;;;;;;;;;;;;;5074452;28;20276;-87
2023/02/17 16:58:50;;;;;;;;;;;;;;;;;;5074666;28;19928;-88